sensor_id;sensor_type;location;lat;lon;timestamp;P1;durP1;ratioP1;P2;durP2;ratioP2
32824;SDS011;51060;42.640;24.356;2023-03-19T00:00:16;69.43;;;43.90;;
32824;SDS011;51060;42.640;24.356;2023-03-19T00:02:42;72.97;;;47.13;;
32824;SDS011;51060;42.640;24.356;2023-03-19T00:05:13;82.87;;;50.80;;
32824;SDS011;51060;42.640;24.356;2023-03-19T00:07:39;102.67;;;54.30;;
32824;SDS011;51060;42.640;24.356;2023-03-19T00:10:05;71.30;;;44.33;;
32824;SDS011;51060;42.640;24.356;2023-03-19T00:12:31;74.37;;;44.20;;
32824;SDS011;51060;42.640;24.356;2023-03-19T00:14:56;70.47;;;42.60;;
32824;SDS011;51060;42.640;24.356;2023-03-19T00:17:22;73.50;;;42.77;;
32824;SDS011;51060;42.640;24.356;2023-03-19T00:19:47;78.40;;;46.83;;
32824;SDS011;51060;42.640;24.356;2023-03-19T00:22:13;85.97;;;51.93;;
32824;SDS011;51060;42.640;24.356;2023-03-19T00:24:38;73.87;;;45.77;;
32824;SDS011;51060;42.640;24.356;2023-03-19T00:27:04;73.77;;;45.30;;
32824;SDS011;51060;42.640;24.356;2023-03-19T00:29:30;79.00;;;44.90;;
32824;SDS011;51060;42.640;24.356;2023-03-19T00:31:56;67.60;;;39.83;;
32824;SDS011;51060;42.640;24.356;2023-03-19T00:34:22;56.97;;;37.53;;
32824;SDS011;51060;42.640;24.356;2023-03-19T00:36:47;59.07;;;35.97;;
32824;SDS011;51060;42.640;24.356;2023-03-19T00:39:13;57.00;;;35.77;;
32824;SDS011;51060;42.640;24.356;2023-03-19T00:41:39;64.43;;;39.20;;
32824;SDS011;51060;42.640;24.356;2023-03-19T00:44:05;61.87;;;38.77;;
32824;SDS011;51060;42.640;24.356;2023-03-19T00:46:31;66.47;;;41.23;;
32824;SDS011;51060;42.640;24.356;2023-03-19T00:48:56;65.33;;;41.90;;
32824;SDS011;51060;42.640;24.356;2023-03-19T00:51:22;64.27;;;41.20;;
32824;SDS011;51060;42.640;24.356;2023-03-19T00:53:49;65.93;;;42.40;;
32824;SDS011;51060;42.640;24.356;2023-03-19T00:56:15;60.67;;;40.00;;
32824;SDS011;51060;42.640;24.356;2023-03-19T00:58:42;64.93;;;40.37;;
32824;SDS011;51060;42.640;24.356;2023-03-19T01:01:08;62.97;;;39.80;;
32824;SDS011;51060;42.640;24.356;2023-03-19T01:03:35;62.10;;;38.33;;
32824;SDS011;51060;42.640;24.356;2023-03-19T01:06:01;52.13;;;34.80;;
32824;SDS011;51060;42.640;24.356;2023-03-19T01:08:27;51.60;;;34.33;;
32824;SDS011;51060;42.640;24.356;2023-03-19T01:10:52;57.67;;;35.17;;
32824;SDS011;51060;42.640;24.356;2023-03-19T01:13:18;47.63;;;32.13;;
32824;SDS011;51060;42.640;24.356;2023-03-19T01:15:44;51.47;;;33.40;;
32824;SDS011;51060;42.640;24.356;2023-03-19T01:18:10;50.03;;;33.20;;
32824;SDS011;51060;42.640;24.356;2023-03-19T01:20:37;52.87;;;36.40;;
32824;SDS011;51060;42.640;24.356;2023-03-19T01:23:04;59.10;;;37.97;;
32824;SDS011;51060;42.640;24.356;2023-03-19T01:25:32;89.23;;;51.03;;
32824;SDS011;51060;42.640;24.356;2023-03-19T01:27:58;75.40;;;46.33;;
32824;SDS011;51060;42.640;24.356;2023-03-19T01:30:24;78.07;;;46.90;;
32824;SDS011;51060;42.640;24.356;2023-03-19T01:32:49;83.10;;;50.47;;
32824;SDS011;51060;42.640;24.356;2023-03-19T01:35:15;94.70;;;55.57;;
32824;SDS011;51060;42.640;24.356;2023-03-19T01:37:41;83.57;;;51.10;;
32824;SDS011;51060;42.640;24.356;2023-03-19T01:40:10;84.37;;;51.87;;
32824;SDS011;51060;42.640;24.356;2023-03-19T01:42:52;108.00;;;58.67;;
32824;SDS011;51060;42.640;24.356;2023-03-19T01:45:32;111.83;;;63.77;;
32824;SDS011;51060;42.640;24.356;2023-03-19T01:47:59;109.93;;;62.17;;
32824;SDS011;51060;42.640;24.356;2023-03-19T01:50:39;98.43;;;55.43;;
32824;SDS011;51060;42.640;24.356;2023-03-19T01:53:06;88.83;;;50.77;;
32824;SDS011;51060;42.640;24.356;2023-03-19T01:55:32;86.67;;;52.37;;
32824;SDS011;51060;42.640;24.356;2023-03-19T01:57:58;88.83;;;51.60;;
32824;SDS011;51060;42.640;24.356;2023-03-19T02:00:25;72.20;;;43.67;;
32824;SDS011;51060;42.640;24.356;2023-03-19T02:02:52;58.70;;;35.57;;
32824;SDS011;51060;42.640;24.356;2023-03-19T02:05:22;54.40;;;34.27;;
32824;SDS011;51060;42.640;24.356;2023-03-19T02:07:54;45.20;;;30.07;;
32824;SDS011;51060;42.640;24.356;2023-03-19T02:10:22;56.87;;;35.60;;
32824;SDS011;51060;42.640;24.356;2023-03-19T02:12:48;58.10;;;34.43;;
32824;SDS011;51060;42.640;24.356;2023-03-19T02:15:13;58.97;;;34.93;;
32824;SDS011;51060;42.640;24.356;2023-03-19T02:17:39;62.60;;;38.27;;
32824;SDS011;51060;42.640;24.356;2023-03-19T02:28:11;71.30;;;42.80;;
32824;SDS011;51060;42.640;24.356;2023-03-19T02:30:40;75.63;;;46.23;;
32824;SDS011;51060;42.640;24.356;2023-03-19T02:33:11;74.27;;;44.30;;
32824;SDS011;51060;42.640;24.356;2023-03-19T02:35:37;73.10;;;43.37;;
32824;SDS011;51060;42.640;24.356;2023-03-19T02:38:03;74.77;;;44.50;;
32824;SDS011;51060;42.640;24.356;2023-03-19T02:40:30;65.47;;;42.30;;
32824;SDS011;51060;42.640;24.356;2023-03-19T02:42:59;61.60;;;41.07;;
32824;SDS011;51060;42.640;24.356;2023-03-19T02:45:28;61.90;;;40.97;;
32824;SDS011;51060;42.640;24.356;2023-03-19T02:47:54;64.67;;;41.50;;
32824;SDS011;51060;42.640;24.356;2023-03-19T02:50:20;59.47;;;39.13;;
32824;SDS011;51060;42.640;24.356;2023-03-19T02:52:46;68.13;;;42.13;;
32824;SDS011;51060;42.640;24.356;2023-03-19T02:55:11;66.53;;;41.83;;
32824;SDS011;51060;42.640;24.356;2023-03-19T02:57:37;82.17;;;46.47;;
32824;SDS011;51060;42.640;24.356;2023-03-19T03:00:03;63.73;;;37.47;;
32824;SDS011;51060;42.640;24.356;2023-03-19T03:02:30;80.10;;;47.33;;
32824;SDS011;51060;42.640;24.356;2023-03-19T03:04:55;76.13;;;42.80;;
32824;SDS011;51060;42.640;24.356;2023-03-19T03:07:21;76.60;;;45.07;;
32824;SDS011;51060;42.640;24.356;2023-03-19T03:09:47;77.93;;;45.47;;
32824;SDS011;51060;42.640;24.356;2023-03-19T03:12:12;84.93;;;47.10;;
32824;SDS011;51060;42.640;24.356;2023-03-19T03:14:38;79.27;;;47.00;;
32824;SDS011;51060;42.640;24.356;2023-03-19T03:17:05;76.43;;;44.40;;
32824;SDS011;51060;42.640;24.356;2023-03-19T03:19:33;74.30;;;42.20;;
32824;SDS011;51060;42.640;24.356;2023-03-19T03:21:59;71.10;;;42.43;;
32824;SDS011;51060;42.640;24.356;2023-03-19T03:24:25;67.00;;;40.03;;
32824;SDS011;51060;42.640;24.356;2023-03-19T03:26:51;65.77;;;40.13;;
32824;SDS011;51060;42.640;24.356;2023-03-19T03:29:17;63.50;;;37.70;;
32824;SDS011;51060;42.640;24.356;2023-03-19T03:31:42;74.93;;;43.60;;
32824;SDS011;51060;42.640;24.356;2023-03-19T03:34:08;67.13;;;40.90;;
32824;SDS011;51060;42.640;24.356;2023-03-19T03:36:34;67.03;;;42.50;;
32824;SDS011;51060;42.640;24.356;2023-03-19T03:38:59;66.03;;;42.77;;
32824;SDS011;51060;42.640;24.356;2023-03-19T03:41:25;67.97;;;41.97;;
32824;SDS011;51060;42.640;24.356;2023-03-19T03:43:51;63.93;;;39.50;;
32824;SDS011;51060;42.640;24.356;2023-03-19T03:46:16;61.23;;;37.37;;
32824;SDS011;51060;42.640;24.356;2023-03-19T03:48:43;60.50;;;35.63;;
32824;SDS011;51060;42.640;24.356;2023-03-19T03:51:09;61.87;;;37.03;;
32824;SDS011;51060;42.640;24.356;2023-03-19T03:53:34;60.33;;;37.13;;
32824;SDS011;51060;42.640;24.356;2023-03-19T03:56:00;61.43;;;38.17;;
32824;SDS011;51060;42.640;24.356;2023-03-19T03:58:26;63.70;;;39.97;;
32824;SDS011;51060;42.640;24.356;2023-03-19T04:00:52;59.33;;;36.33;;
32824;SDS011;51060;42.640;24.356;2023-03-19T04:03:18;47.43;;;30.30;;
32824;SDS011;51060;42.640;24.356;2023-03-19T04:05:44;58.80;;;33.50;;
32824;SDS011;51060;42.640;24.356;2023-03-19T04:08:10;58.63;;;35.00;;
32824;SDS011;51060;42.640;24.356;2023-03-19T04:10:39;68.53;;;39.07;;
32824;SDS011;51060;42.640;24.356;2023-03-19T04:13:06;75.83;;;43.20;;
32824;SDS011;51060;42.640;24.356;2023-03-19T04:15:33;76.73;;;42.40;;
32824;SDS011;51060;42.640;24.356;2023-03-19T04:17:59;73.17;;;42.60;;
32824;SDS011;51060;42.640;24.356;2023-03-19T04:20:25;83.03;;;45.80;;
32824;SDS011;51060;42.640;24.356;2023-03-19T04:22:51;82.23;;;46.00;;
32824;SDS011;51060;42.640;24.356;2023-03-19T04:25:16;76.90;;;42.13;;
32824;SDS011;51060;42.640;24.356;2023-03-19T04:27:43;78.10;;;43.57;;
32824;SDS011;51060;42.640;24.356;2023-03-19T04:30:09;74.23;;;43.23;;
32824;SDS011;51060;42.640;24.356;2023-03-19T04:32:35;80.47;;;46.80;;
32824;SDS011;51060;42.640;24.356;2023-03-19T04:35:01;67.30;;;39.13;;
32824;SDS011;51060;42.640;24.356;2023-03-19T04:37:27;81.60;;;47.20;;
32824;SDS011;51060;42.640;24.356;2023-03-19T04:39:53;70.17;;;43.23;;
32824;SDS011;51060;42.640;24.356;2023-03-19T04:42:19;73.63;;;44.33;;
32824;SDS011;51060;42.640;24.356;2023-03-19T04:44:45;70.57;;;41.90;;
32824;SDS011;51060;42.640;24.356;2023-03-19T04:47:10;66.40;;;40.77;;
32824;SDS011;51060;42.640;24.356;2023-03-19T04:49:36;63.03;;;38.67;;
32824;SDS011;51060;42.640;24.356;2023-03-19T04:52:02;64.57;;;40.20;;
32824;SDS011;51060;42.640;24.356;2023-03-19T04:54:28;70.77;;;44.83;;
32824;SDS011;51060;42.640;24.356;2023-03-19T04:56:54;68.33;;;43.57;;
32824;SDS011;51060;42.640;24.356;2023-03-19T04:59:22;68.93;;;42.77;;
32824;SDS011;51060;42.640;24.356;2023-03-19T05:01:47;64.00;;;40.40;;
32824;SDS011;51060;42.640;24.356;2023-03-19T05:04:13;60.63;;;38.63;;
32824;SDS011;51060;42.640;24.356;2023-03-19T05:06:39;89.07;;;52.13;;
32824;SDS011;51060;42.640;24.356;2023-03-19T05:09:05;88.13;;;49.87;;
32824;SDS011;51060;42.640;24.356;2023-03-19T05:11:31;105.03;;;59.97;;
32824;SDS011;51060;42.640;24.356;2023-03-19T05:13:57;115.63;;;64.07;;
32824;SDS011;51060;42.640;24.356;2023-03-19T05:16:23;114.20;;;64.67;;
32824;SDS011;51060;42.640;24.356;2023-03-19T05:18:48;107.90;;;63.30;;
32824;SDS011;51060;42.640;24.356;2023-03-19T05:21:14;108.23;;;58.80;;
32824;SDS011;51060;42.640;24.356;2023-03-19T05:23:40;101.90;;;55.17;;
32824;SDS011;51060;42.640;24.356;2023-03-19T05:26:08;109.67;;;57.23;;
32824;SDS011;51060;42.640;24.356;2023-03-19T05:28:36;105.07;;;56.53;;
32824;SDS011;51060;42.640;24.356;2023-03-19T05:31:04;102.50;;;56.73;;
32824;SDS011;51060;42.640;24.356;2023-03-19T05:33:32;110.37;;;59.23;;
32824;SDS011;51060;42.640;24.356;2023-03-19T05:35:57;94.37;;;53.73;;
32824;SDS011;51060;42.640;24.356;2023-03-19T05:38:23;53.53;;;33.83;;
32824;SDS011;51060;42.640;24.356;2023-03-19T05:40:49;47.20;;;30.87;;
32824;SDS011;51060;42.640;24.356;2023-03-19T05:43:14;52.73;;;32.07;;
32824;SDS011;51060;42.640;24.356;2023-03-19T05:45:40;77.90;;;44.87;;
32824;SDS011;51060;42.640;24.356;2023-03-19T05:48:06;111.50;;;62.00;;
32824;SDS011;51060;42.640;24.356;2023-03-19T05:50:33;106.10;;;59.43;;
32824;SDS011;51060;42.640;24.356;2023-03-19T05:53:01;100.40;;;57.80;;
32824;SDS011;51060;42.640;24.356;2023-03-19T05:55:27;131.20;;;72.67;;
32824;SDS011;51060;42.640;24.356;2023-03-19T05:57:52;140.03;;;81.27;;
32824;SDS011;51060;42.640;24.356;2023-03-19T06:00:18;136.03;;;85.20;;
32824;SDS011;51060;42.640;24.356;2023-03-19T06:02:44;147.03;;;90.23;;
32824;SDS011;51060;42.640;24.356;2023-03-19T06:05:10;152.47;;;88.77;;
32824;SDS011;51060;42.640;24.356;2023-03-19T06:07:36;125.37;;;75.37;;
32824;SDS011;51060;42.640;24.356;2023-03-19T06:10:02;114.70;;;68.63;;
32824;SDS011;51060;42.640;24.356;2023-03-19T06:12:28;77.93;;;51.37;;
32824;SDS011;51060;42.640;24.356;2023-03-19T06:14:54;58.30;;;38.43;;
32824;SDS011;51060;42.640;24.356;2023-03-19T06:17:20;49.60;;;33.00;;
32824;SDS011;51060;42.640;24.356;2023-03-19T06:19:48;48.50;;;33.10;;
32824;SDS011;51060;42.640;24.356;2023-03-19T06:22:14;59.23;;;39.10;;
32824;SDS011;51060;42.640;24.356;2023-03-19T06:24:40;57.20;;;39.27;;
32824;SDS011;51060;42.640;24.356;2023-03-19T06:27:06;47.87;;;33.17;;
32824;SDS011;51060;42.640;24.356;2023-03-19T06:29:31;43.27;;;30.20;;
32824;SDS011;51060;42.640;24.356;2023-03-19T06:31:57;47.13;;;31.17;;
32824;SDS011;51060;42.640;24.356;2023-03-19T06:34:22;40.10;;;28.27;;
32824;SDS011;51060;42.640;24.356;2023-03-19T06:36:48;41.37;;;27.20;;
32824;SDS011;51060;42.640;24.356;2023-03-19T06:39:13;35.93;;;23.70;;
32824;SDS011;51060;42.640;24.356;2023-03-19T06:41:39;31.80;;;21.43;;
32824;SDS011;51060;42.640;24.356;2023-03-19T06:44:05;30.53;;;20.90;;
32824;SDS011;51060;42.640;24.356;2023-03-19T06:46:31;34.17;;;21.53;;
32824;SDS011;51060;42.640;24.356;2023-03-19T06:48:57;27.53;;;20.37;;
32824;SDS011;51060;42.640;24.356;2023-03-19T06:51:22;30.13;;;20.80;;
32824;SDS011;51060;42.640;24.356;2023-03-19T06:53:48;21.00;;;17.17;;
32824;SDS011;51060;42.640;24.356;2023-03-19T06:56:13;20.83;;;15.70;;
32824;SDS011;51060;42.640;24.356;2023-03-19T06:58:39;26.37;;;19.23;;
32824;SDS011;51060;42.640;24.356;2023-03-19T07:01:05;25.20;;;18.70;;
32824;SDS011;51060;42.640;24.356;2023-03-19T07:03:31;24.03;;;18.17;;
32824;SDS011;51060;42.640;24.356;2023-03-19T07:05:56;26.73;;;18.70;;
32824;SDS011;51060;42.640;24.356;2023-03-19T07:08:22;20.57;;;16.43;;
32824;SDS011;51060;42.640;24.356;2023-03-19T07:10:47;14.97;;;10.80;;
32824;SDS011;51060;42.640;24.356;2023-03-19T07:13:13;15.47;;;11.83;;
32824;SDS011;51060;42.640;24.356;2023-03-19T07:15:39;18.57;;;12.30;;
32824;SDS011;51060;42.640;24.356;2023-03-19T07:18:05;16.57;;;13.60;;
32824;SDS011;51060;42.640;24.356;2023-03-19T07:20:30;15.50;;;11.77;;
32824;SDS011;51060;42.640;24.356;2023-03-19T07:22:56;12.93;;;11.07;;
32824;SDS011;51060;42.640;24.356;2023-03-19T07:25:22;16.67;;;12.27;;
32824;SDS011;51060;42.640;24.356;2023-03-19T07:27:47;9.30;;;8.27;;
32824;SDS011;51060;42.640;24.356;2023-03-19T07:30:13;9.27;;;7.77;;
32824;SDS011;51060;42.640;24.356;2023-03-19T07:32:40;12.43;;;10.33;;
32824;SDS011;51060;42.640;24.356;2023-03-19T07:35:07;9.00;;;6.50;;
32824;SDS011;51060;42.640;24.356;2023-03-19T07:37:33;4.40;;;3.93;;
32824;SDS011;51060;42.640;24.356;2023-03-19T07:39:59;3.83;;;3.40;;
32824;SDS011;51060;42.640;24.356;2023-03-19T07:42:24;2.23;;;2.03;;
32824;SDS011;51060;42.640;24.356;2023-03-19T07:44:50;2.90;;;2.23;;
32824;SDS011;51060;42.640;24.356;2023-03-19T07:47:15;3.33;;;2.10;;
32824;SDS011;51060;42.640;24.356;2023-03-19T07:49:41;4.00;;;2.50;;
32824;SDS011;51060;42.640;24.356;2023-03-19T07:52:07;2.80;;;2.60;;
32824;SDS011;51060;42.640;24.356;2023-03-19T07:54:32;2.80;;;2.40;;
32824;SDS011;51060;42.640;24.356;2023-03-19T07:56:58;3.03;;;2.73;;
32824;SDS011;51060;42.640;24.356;2023-03-19T07:59:24;1.70;;;1.47;;
32824;SDS011;51060;42.640;24.356;2023-03-19T08:01:49;2.63;;;2.10;;
32824;SDS011;51060;42.640;24.356;2023-03-19T08:04:15;9.70;;;6.47;;
32824;SDS011;51060;42.640;24.356;2023-03-19T08:06:41;7.93;;;6.63;;
32824;SDS011;51060;42.640;24.356;2023-03-19T08:09:06;2.63;;;2.37;;
32824;SDS011;51060;42.640;24.356;2023-03-19T08:11:33;3.53;;;3.17;;
32824;SDS011;51060;42.640;24.356;2023-03-19T08:13:59;3.13;;;2.83;;
32824;SDS011;51060;42.640;24.356;2023-03-19T08:16:28;2.67;;;2.47;;
32824;SDS011;51060;42.640;24.356;2023-03-19T08:18:53;8.47;;;7.30;;
32824;SDS011;51060;42.640;24.356;2023-03-19T08:21:19;3.10;;;2.80;;
32824;SDS011;51060;42.640;24.356;2023-03-19T08:23:44;4.60;;;3.07;;
32824;SDS011;51060;42.640;24.356;2023-03-19T08:26:10;9.33;;;5.67;;
32824;SDS011;51060;42.640;24.356;2023-03-19T08:28:36;4.13;;;2.50;;
32824;SDS011;51060;42.640;24.356;2023-03-19T08:31:09;2.30;;;2.10;;
32824;SDS011;51060;42.640;24.356;2023-03-19T08:33:35;1.30;;;1.20;;
32824;SDS011;51060;42.640;24.356;2023-03-19T08:36:05;1.80;;;1.63;;
32824;SDS011;51060;42.640;24.356;2023-03-19T08:38:31;2.10;;;1.90;;
32824;SDS011;51060;42.640;24.356;2023-03-19T08:40:56;1.60;;;1.50;;
32824;SDS011;51060;42.640;24.356;2023-03-19T08:43:26;2.23;;;1.80;;
32824;SDS011;51060;42.640;24.356;2023-03-19T08:45:52;1.63;;;1.20;;
32824;SDS011;51060;42.640;24.356;2023-03-19T08:48:18;2.63;;;2.43;;
32824;SDS011;51060;42.640;24.356;2023-03-19T08:50:44;2.60;;;1.73;;
32824;SDS011;51060;42.640;24.356;2023-03-19T08:53:09;2.07;;;1.40;;
32824;SDS011;51060;42.640;24.356;2023-03-19T08:55:35;1.97;;;1.40;;
32824;SDS011;51060;42.640;24.356;2023-03-19T08:58:00;3.70;;;2.80;;
32824;SDS011;51060;42.640;24.356;2023-03-19T09:00:26;4.63;;;2.50;;
32824;SDS011;51060;42.640;24.356;2023-03-19T09:02:52;2.97;;;2.27;;
32824;SDS011;51060;42.640;24.356;2023-03-19T09:05:17;3.77;;;2.30;;
32824;SDS011;51060;42.640;24.356;2023-03-19T09:07:46;2.37;;;2.00;;
32824;SDS011;51060;42.640;24.356;2023-03-19T09:10:12;34.87;;;21.67;;
32824;SDS011;51060;42.640;24.356;2023-03-19T09:12:38;4.03;;;2.93;;
32824;SDS011;51060;42.640;24.356;2023-03-19T09:15:04;3.43;;;2.20;;
32824;SDS011;51060;42.640;24.356;2023-03-19T09:17:30;2.43;;;2.17;;
32824;SDS011;51060;42.640;24.356;2023-03-19T09:19:56;3.17;;;2.47;;
32824;SDS011;51060;42.640;24.356;2023-03-19T09:22:22;2.23;;;1.27;;
32824;SDS011;51060;42.640;24.356;2023-03-19T09:24:47;2.97;;;1.70;;
32824;SDS011;51060;42.640;24.356;2023-03-19T09:27:13;1.70;;;1.60;;
32824;SDS011;51060;42.640;24.356;2023-03-19T09:29:39;2.13;;;1.80;;
32824;SDS011;51060;42.640;24.356;2023-03-19T09:32:05;1.20;;;1.10;;
32824;SDS011;51060;42.640;24.356;2023-03-19T09:34:31;4.20;;;3.10;;
32824;SDS011;51060;42.640;24.356;2023-03-19T09:36:57;6.07;;;5.20;;
32824;SDS011;51060;42.640;24.356;2023-03-19T09:39:22;3.13;;;2.30;;
32824;SDS011;51060;42.640;24.356;2023-03-19T09:44:42;2.83;;;2.40;;
32824;SDS011;51060;42.640;24.356;2023-03-19T09:47:31;5.63;;;4.23;;
32824;SDS011;51060;42.640;24.356;2023-03-19T09:49:59;2.67;;;2.40;;
32824;SDS011;51060;42.640;24.356;2023-03-19T09:52:30;5.70;;;1.70;;
32824;SDS011;51060;42.640;24.356;2023-03-19T09:57:49;2.00;;;1.50;;
32824;SDS011;51060;42.640;24.356;2023-03-19T10:00:27;2.63;;;1.83;;
32824;SDS011;51060;42.640;24.356;2023-03-19T10:03:12;2.57;;;1.90;;
32824;SDS011;51060;42.640;24.356;2023-03-19T10:05:43;1.87;;;1.63;;
32824;SDS011;51060;42.640;24.356;2023-03-19T10:11:12;2.20;;;2.00;;
32824;SDS011;51060;42.640;24.356;2023-03-19T10:17:02;2.25;;;1.70;;
32824;SDS011;51060;42.640;24.356;2023-03-19T10:22:14;2.67;;;1.80;;
32824;SDS011;51060;42.640;24.356;2023-03-19T10:25:09;2.28;;;1.80;;
32824;SDS011;51060;42.640;24.356;2023-03-19T10:27:38;3.63;;;2.20;;
32824;SDS011;51060;42.640;24.356;2023-03-19T10:30:11;3.03;;;2.55;;
32824;SDS011;51060;42.640;24.356;2023-03-19T10:32:42;5.15;;;2.50;;
32824;SDS011;51060;42.640;24.356;2023-03-19T10:37:45;1.40;;;1.10;;
32824;SDS011;51060;42.640;24.356;2023-03-19T10:40:35;1.43;;;1.33;;
32824;SDS011;51060;42.640;24.356;2023-03-19T10:45:41;2.55;;;2.35;;
32824;SDS011;51060;42.640;24.356;2023-03-19T10:48:11;1.83;;;1.65;;
32824;SDS011;51060;42.640;24.356;2023-03-19T10:55:37;3.83;;;3.13;;
32824;SDS011;51060;42.640;24.356;2023-03-19T10:58:06;4.07;;;1.83;;
32824;SDS011;51060;42.640;24.356;2023-03-19T11:00:40;1.88;;;1.50;;
32824;SDS011;51060;42.640;24.356;2023-03-19T11:11:25;2.50;;;1.63;;
32824;SDS011;51060;42.640;24.356;2023-03-19T11:13:57;1.10;;;1.00;;
32824;SDS011;51060;42.640;24.356;2023-03-19T11:16:22;1.88;;;0.95;;
32824;SDS011;51060;42.640;24.356;2023-03-19T11:18:48;2.25;;;1.70;;
32824;SDS011;51060;42.640;24.356;2023-03-19T11:23:52;6.95;;;5.07;;
32824;SDS011;51060;42.640;24.356;2023-03-19T11:26:23;2.15;;;1.52;;
32824;SDS011;51060;42.640;24.356;2023-03-19T11:28:52;2.33;;;1.40;;
32824;SDS011;51060;42.640;24.356;2023-03-19T11:34:14;1.75;;;1.40;;
32824;SDS011;51060;42.640;24.356;2023-03-19T11:37:07;5.22;;;4.72;;
32824;SDS011;51060;42.640;24.356;2023-03-19T11:42:38;4.35;;;3.58;;
32824;SDS011;51060;42.640;24.356;2023-03-19T11:45:11;5.47;;;2.70;;
32824;SDS011;51060;42.640;24.356;2023-03-19T12:06:50;1.20;;;1.00;;
32824;SDS011;51060;42.640;24.356;2023-03-19T12:28:33;1.70;;;1.00;;
32824;SDS011;51060;42.640;24.356;2023-03-19T12:31:22;1.15;;;0.80;;
32824;SDS011;51060;42.640;24.356;2023-03-19T12:37:03;1.58;;;1.08;;
32824;SDS011;51060;42.640;24.356;2023-03-19T12:39:36;2.05;;;1.50;;
32824;SDS011;51060;42.640;24.356;2023-03-19T12:42:05;6.05;;;5.10;;
32824;SDS011;51060;42.640;24.356;2023-03-19T12:44:43;14.05;;;11.35;;
32824;SDS011;51060;42.640;24.356;2023-03-19T12:47:17;3.88;;;2.75;;
32824;SDS011;51060;42.640;24.356;2023-03-19T12:49:48;4.38;;;2.60;;
32824;SDS011;51060;42.640;24.356;2023-03-19T12:52:37;7.88;;;5.40;;
32824;SDS011;51060;42.640;24.356;2023-03-19T12:55:15;23.13;;;15.43;;
32824;SDS011;51060;42.640;24.356;2023-03-19T13:00:45;3.10;;;2.50;;
32824;SDS011;51060;42.640;24.356;2023-03-19T13:11:12;1.63;;;1.52;;
32824;SDS011;51060;42.640;24.356;2023-03-19T13:13:54;1.60;;;1.50;;
32824;SDS011;51060;42.640;24.356;2023-03-19T13:21:35;5.95;;;4.72;;
32824;SDS011;51060;42.640;24.356;2023-03-19T13:26:57;2.90;;;2.10;;
32824;SDS011;51060;42.640;24.356;2023-03-19T13:29:25;2.60;;;2.30;;
32824;SDS011;51060;42.640;24.356;2023-03-19T13:31:52;2.00;;;1.80;;
32824;SDS011;51060;42.640;24.356;2023-03-19T13:34:35;2.80;;;1.98;;
32824;SDS011;51060;42.640;24.356;2023-03-19T13:37:14;3.05;;;1.70;;
32824;SDS011;51060;42.640;24.356;2023-03-19T13:39:42;3.53;;;2.92;;
32824;SDS011;51060;42.640;24.356;2023-03-19T13:44:54;5.72;;;4.50;;
32824;SDS011;51060;42.640;24.356;2023-03-19T14:01:01;7.28;;;4.18;;
32824;SDS011;51060;42.640;24.356;2023-03-19T14:03:29;4.03;;;2.50;;
32824;SDS011;51060;42.640;24.356;2023-03-19T14:05:55;3.10;;;2.40;;
32824;SDS011;51060;42.640;24.356;2023-03-19T14:08:26;5.35;;;2.63;;
32824;SDS011;51060;42.640;24.356;2023-03-19T14:11:11;5.13;;;2.60;;
32824;SDS011;51060;42.640;24.356;2023-03-19T14:13:47;3.05;;;2.10;;
32824;SDS011;51060;42.640;24.356;2023-03-19T14:18:42;5.50;;;4.28;;
32824;SDS011;51060;42.640;24.356;2023-03-19T14:21:10;8.75;;;5.43;;
32824;SDS011;51060;42.640;24.356;2023-03-19T14:23:40;3.45;;;2.67;;
32824;SDS011;51060;42.640;24.356;2023-03-19T14:26:18;6.60;;;4.75;;
32824;SDS011;51060;42.640;24.356;2023-03-19T14:29:05;12.30;;;9.85;;
32824;SDS011;51060;42.640;24.356;2023-03-19T14:36:41;2.97;;;2.60;;
32824;SDS011;51060;42.640;24.356;2023-03-19T14:39:16;3.97;;;2.15;;
32824;SDS011;51060;42.640;24.356;2023-03-19T14:41:45;3.15;;;2.15;;
32824;SDS011;51060;42.640;24.356;2023-03-19T14:47:24;4.05;;;3.58;;
32824;SDS011;51060;42.640;24.356;2023-03-19T14:53:16;5.75;;;4.63;;
32824;SDS011;51060;42.640;24.356;2023-03-19T14:55:50;7.90;;;6.22;;
32824;SDS011;51060;42.640;24.356;2023-03-19T14:58:20;12.27;;;9.20;;
32824;SDS011;51060;42.640;24.356;2023-03-19T15:00:48;11.98;;;7.43;;
32824;SDS011;51060;42.640;24.356;2023-03-19T15:05:45;4.20;;;3.08;;
32824;SDS011;51060;42.640;24.356;2023-03-19T15:08:14;5.55;;;4.05;;
32824;SDS011;51060;42.640;24.356;2023-03-19T15:10:55;4.55;;;3.13;;
32824;SDS011;51060;42.640;24.356;2023-03-19T15:13:48;5.30;;;4.35;;
32824;SDS011;51060;42.640;24.356;2023-03-19T15:19:26;6.75;;;5.38;;
32824;SDS011;51060;42.640;24.356;2023-03-19T15:22:04;5.72;;;3.53;;
32824;SDS011;51060;42.640;24.356;2023-03-19T15:24:40;5.20;;;4.20;;
32824;SDS011;51060;42.640;24.356;2023-03-19T15:27:22;7.45;;;5.00;;
32824;SDS011;51060;42.640;24.356;2023-03-19T15:29:50;6.60;;;4.78;;
32824;SDS011;51060;42.640;24.356;2023-03-19T15:32:38;9.70;;;6.22;;
32824;SDS011;51060;42.640;24.356;2023-03-19T15:35:04;5.68;;;3.72;;
32824;SDS011;51060;42.640;24.356;2023-03-19T15:37:31;6.68;;;3.97;;
32824;SDS011;51060;42.640;24.356;2023-03-19T15:40:01;10.18;;;6.40;;
32824;SDS011;51060;42.640;24.356;2023-03-19T15:42:27;8.10;;;5.00;;
32824;SDS011;51060;42.640;24.356;2023-03-19T15:44:58;9.65;;;6.43;;
32824;SDS011;51060;42.640;24.356;2023-03-19T15:47:29;9.68;;;7.25;;
32824;SDS011;51060;42.640;24.356;2023-03-19T15:50:06;11.00;;;7.72;;
32824;SDS011;51060;42.640;24.356;2023-03-19T15:52:37;12.05;;;8.63;;
32824;SDS011;51060;42.640;24.356;2023-03-19T15:55:05;26.15;;;19.48;;
32824;SDS011;51060;42.640;24.356;2023-03-19T15:57:31;23.00;;;17.92;;
32824;SDS011;51060;42.640;24.356;2023-03-19T16:00:00;20.10;;;16.13;;
32824;SDS011;51060;42.640;24.356;2023-03-19T16:02:27;24.40;;;16.65;;
32824;SDS011;51060;42.640;24.356;2023-03-19T16:04:55;26.80;;;18.95;;
32824;SDS011;51060;42.640;24.356;2023-03-19T16:07:22;18.42;;;12.98;;
32824;SDS011;51060;42.640;24.356;2023-03-19T16:09:57;17.20;;;12.73;;
32824;SDS011;51060;42.640;24.356;2023-03-19T16:12:37;17.27;;;12.73;;
32824;SDS011;51060;42.640;24.356;2023-03-19T16:20:42;26.42;;;23.70;;
32824;SDS011;51060;42.640;24.356;2023-03-19T16:23:11;18.77;;;16.87;;
32824;SDS011;51060;42.640;24.356;2023-03-19T16:25:42;34.10;;;30.40;;
32824;SDS011;51060;42.640;24.356;2023-03-19T16:28:19;29.57;;;25.00;;
32824;SDS011;51060;42.640;24.356;2023-03-19T16:30:48;37.70;;;29.70;;
32824;SDS011;51060;42.640;24.356;2023-03-19T16:33:14;31.80;;;27.30;;
32824;SDS011;51060;42.640;24.356;2023-03-19T16:35:39;31.63;;;26.90;;
32824;SDS011;51060;42.640;24.356;2023-03-19T16:38:12;10.40;;;9.40;;
32824;SDS011;51060;42.640;24.356;2023-03-19T16:43:21;8.90;;;7.90;;
32824;SDS011;51060;42.640;24.356;2023-03-19T16:45:51;22.30;;;20.20;;
32824;SDS011;51060;42.640;24.356;2023-03-19T16:48:29;15.07;;;13.60;;
32824;SDS011;51060;42.640;24.356;2023-03-19T16:50:54;61.40;;;35.87;;
32824;SDS011;51060;42.640;24.356;2023-03-19T16:53:21;140.57;;;81.50;;
32824;SDS011;51060;42.640;24.356;2023-03-19T16:55:48;29.60;;;20.47;;
32824;SDS011;51060;42.640;24.356;2023-03-19T16:58:20;13.27;;;9.20;;